createdAt,value
2022-10-29T00:01:38.222Z,48.64
2022-10-29T00:04:05.020Z,48.13
2022-10-29T00:06:31.783Z,47.79
2022-10-29T00:08:58.616Z,47.79
2022-10-29T00:11:25.358Z,47.78
2022-10-29T00:13:52.094Z,47.55
2022-10-29T00:16:18.874Z,48.25
2022-10-29T00:18:45.643Z,52.50
2022-10-29T00:21:12.744Z,53.78
2022-10-29T00:23:39.508Z,52.37
2022-10-29T00:26:06.238Z,49.54
2022-10-29T00:28:32.990Z,48.81
2022-10-29T00:30:59.764Z,48.43
2022-10-29T00:33:26.516Z,47.89
2022-10-29T00:35:53.269Z,48.13
2022-10-29T00:38:20.024Z,47.35
2022-10-29T00:40:46.796Z,47.38
2022-10-29T00:43:14.083Z,47.55
2022-10-29T00:45:40.851Z,47.03
2022-10-29T00:48:07.600Z,49.72
2022-10-29T00:50:34.348Z,52.26
2022-10-29T00:53:01.101Z,54.66
2022-10-29T00:55:27.925Z,51.74
2022-10-29T00:57:55.115Z,49.08
2022-10-29T01:00:22.178Z,48.46
2022-10-29T01:02:49.047Z,48.02
2022-10-29T01:05:15.848Z,47.88
2022-10-29T01:07:42.660Z,47.45
2022-10-29T01:10:09.437Z,47.38
2022-10-29T01:12:36.224Z,47.13
2022-10-29T01:15:02.990Z,47.37
2022-10-29T01:17:29.747Z,48.90
2022-10-29T01:19:56.511Z,52.31
2022-10-29T01:22:23.263Z,54.55
2022-10-29T01:24:50.025Z,51.26
2022-10-29T01:27:16.789Z,49.44
2022-10-29T01:29:43.589Z,48.60
2022-10-29T01:32:10.332Z,48.57
2022-10-29T01:34:37.075Z,47.74
2022-10-29T01:37:03.840Z,47.33
2022-10-29T01:39:30.597Z,47.50
2022-10-29T01:41:57.375Z,47.47
2022-10-29T01:44:24.162Z,47.29
2022-10-29T01:46:50.900Z,47.49
2022-10-29T01:49:17.650Z,50.19
2022-10-29T01:51:44.406Z,51.99
2022-10-29T01:54:11.193Z,53.53
2022-10-29T01:56:37.944Z,50.60
2022-10-29T01:59:04.711Z,49.37
2022-10-29T02:01:31.505Z,48.61
2022-10-29T02:03:58.294Z,47.81
2022-10-29T02:06:25.077Z,48.02
2022-10-29T02:08:51.814Z,47.59
2022-10-29T02:11:18.552Z,47.33
2022-10-29T02:13:45.310Z,46.93
2022-10-29T02:16:12.056Z,47.17
2022-10-29T02:18:38.804Z,47.34
2022-10-29T02:21:05.569Z,47.75
2022-10-29T02:23:32.314Z,50.64
2022-10-29T02:25:59.047Z,52.39
2022-10-29T02:28:25.812Z,53.39
2022-10-29T02:30:52.564Z,49.93
2022-10-29T02:33:19.414Z,48.88
2022-10-29T02:35:46.250Z,48.75
2022-10-29T02:38:13.002Z,48.12
2022-10-29T02:40:39.742Z,47.97
2022-10-29T02:43:06.582Z,46.89
2022-10-29T02:45:33.355Z,46.91
2022-10-29T02:48:00.177Z,47.21
2022-10-29T02:50:26.938Z,47.39
2022-10-29T02:52:53.705Z,48.91
2022-10-29T02:55:20.451Z,51.84
2022-10-29T02:57:47.218Z,54.26
2022-10-29T03:00:13.986Z,51.25
2022-10-29T03:02:40.799Z,49.37
2022-10-29T03:05:07.604Z,48.78
2022-10-29T03:07:34.363Z,47.99
2022-10-29T03:10:01.114Z,47.96
2022-10-29T03:12:27.872Z,47.84
2022-10-29T03:14:54.628Z,47.48
2022-10-29T03:17:21.365Z,47.39
2022-10-29T03:19:48.131Z,47.30
2022-10-29T03:22:14.867Z,48.31
2022-10-29T03:24:41.608Z,50.96
2022-10-29T03:27:08.429Z,53.26
2022-10-29T03:29:35.176Z,52.78
2022-10-29T03:32:02.107Z,50.45
2022-10-29T03:34:28.876Z,48.70
2022-10-29T03:36:55.623Z,48.37
2022-10-29T03:39:22.428Z,47.86
2022-10-29T03:41:49.199Z,47.99
2022-10-29T03:44:15.962Z,47.32
2022-10-29T03:46:42.709Z,47.35
2022-10-29T03:49:09.481Z,47.04
2022-10-29T03:51:36.220Z,47.01
2022-10-29T03:54:03.000Z,48.15
2022-10-29T03:56:29.794Z,52.30
2022-10-29T03:58:56.571Z,54.01
2022-10-29T04:01:23.473Z,51.23
2022-10-29T04:03:50.321Z,49.68
2022-10-29T04:06:18.171Z,48.66
2022-10-29T04:08:44.933Z,48.01
2022-10-29T04:11:11.743Z,47.39
2022-10-29T04:13:38.632Z,47.79
2022-10-29T04:16:05.406Z,47.28
2022-10-29T04:18:32.190Z,47.42
2022-10-29T04:23:01.947Z,47.02
2022-10-29T04:28:03.083Z,53.30
2022-10-29T04:29:19.213Z,51.33
2022-10-29T04:31:45.965Z,49.12
2022-10-29T04:34:12.762Z,48.52
2022-10-29T04:36:39.559Z,48.05
2022-10-29T04:39:06.358Z,48.16
2022-10-29T04:41:33.166Z,47.75
2022-10-29T04:43:59.914Z,47.30
2022-10-29T04:46:26.655Z,46.86
2022-10-29T04:48:53.460Z,47.29
2022-10-29T04:51:20.316Z,46.98
2022-10-29T04:53:47.059Z,50.52
2022-10-29T04:56:13.812Z,52.77
2022-10-29T04:58:40.567Z,53.31
2022-10-29T05:01:07.480Z,49.82
2022-10-29T05:03:34.382Z,48.58
2022-10-29T05:06:01.151Z,48.43
2022-10-29T05:08:27.912Z,47.99
2022-10-29T05:10:54.770Z,47.40
2022-10-29T05:13:21.563Z,46.88
2022-10-29T05:15:52.837Z,46.68
2022-10-29T05:18:20.140Z,47.25
2022-10-29T05:20:46.936Z,49.36
2022-10-29T05:23:13.706Z,52.46
2022-10-29T05:25:40.504Z,54.19
2022-10-29T05:28:07.279Z,50.99
2022-10-29T05:30:34.044Z,48.98
2022-10-29T05:33:00.787Z,48.78
2022-10-29T05:35:27.618Z,48.11
2022-10-29T05:37:54.452Z,47.83
2022-10-29T05:40:21.215Z,47.60
2022-10-29T05:42:47.983Z,47.46
2022-10-29T05:45:14.866Z,47.15
2022-10-29T05:47:41.611Z,46.77
2022-10-29T05:50:08.597Z,49.59
2022-10-29T05:52:35.335Z,52.37
2022-10-29T05:55:02.119Z,54.20
2022-10-29T05:57:28.885Z,51.04
2022-10-29T05:59:55.648Z,49.49
2022-10-29T06:02:22.510Z,48.57
2022-10-29T06:04:49.400Z,48.18
2022-10-29T06:07:16.161Z,47.81
2022-10-29T06:09:42.900Z,47.72
2022-10-29T06:12:09.698Z,47.42
2022-10-29T06:14:36.449Z,47.07
2022-10-29T06:17:03.197Z,46.71
2022-10-29T06:19:30.080Z,46.84
2022-10-29T06:22:00.316Z,49.42
2022-10-29T06:24:27.472Z,52.43
2022-10-29T06:26:54.647Z,53.59
2022-10-29T06:29:21.451Z,50.52
2022-10-29T06:31:48.228Z,48.98
2022-10-29T06:34:15.074Z,48.70
2022-10-29T06:36:41.898Z,48.26
2022-10-29T06:39:08.686Z,47.57
2022-10-29T06:41:35.452Z,47.29
2022-10-29T06:44:02.192Z,47.31
2022-10-29T06:46:28.991Z,47.19
2022-10-29T06:48:55.746Z,47.39
2022-10-29T06:53:54.928Z,51.68
2022-10-29T06:56:21.687Z,54.23
2022-10-29T06:58:48.429Z,51.54
2022-10-29T07:01:15.244Z,49.29
2022-10-29T07:03:42.075Z,48.07
2022-10-29T07:06:08.842Z,47.51
2022-10-29T07:08:35.586Z,47.83
2022-10-29T07:11:02.904Z,47.36
2022-10-29T07:13:29.691Z,47.40
2022-10-29T07:15:56.443Z,47.29
2022-10-29T07:18:23.226Z,47.84
2022-10-29T07:20:49.974Z,51.72
2022-10-29T07:23:16.804Z,53.35
2022-10-29T07:25:43.620Z,52.54
2022-10-29T07:28:10.466Z,49.50
2022-10-29T07:30:37.212Z,48.65
2022-10-29T07:33:04.096Z,48.42
2022-10-29T07:35:30.879Z,47.87
2022-10-29T07:37:57.927Z,47.71
2022-10-29T07:40:24.875Z,47.42
2022-10-29T07:42:51.613Z,47.39
2022-10-29T07:45:18.354Z,47.30
2022-10-29T07:47:45.163Z,46.79
2022-10-29T07:50:12.681Z,49.26
2022-10-29T07:52:39.426Z,52.55
2022-10-29T07:55:06.266Z,54.14
2022-10-29T07:57:33.021Z,50.66
2022-10-29T07:59:59.800Z,49.05
2022-10-29T08:02:26.562Z,48.11
2022-10-29T08:04:53.316Z,48.18
2022-10-29T08:07:20.041Z,47.05
2022-10-29T08:09:46.792Z,47.57
2022-10-29T08:12:13.536Z,47.46
2022-10-29T08:14:40.290Z,46.65
2022-10-29T08:17:07.047Z,47.06
2022-10-29T08:19:33.933Z,50.59
2022-10-29T08:22:00.675Z,52.50
2022-10-29T08:24:27.455Z,53.63
2022-10-29T08:26:54.200Z,49.94
2022-10-29T08:29:21.045Z,48.90
2022-10-29T08:31:47.812Z,47.76
2022-10-29T08:34:14.564Z,47.96
2022-10-29T08:36:41.351Z,47.42
2022-10-29T08:39:08.119Z,47.34
2022-10-29T08:41:34.874Z,47.43
2022-10-29T08:46:29.368Z,50.98
2022-10-29T08:48:56.120Z,53.29
2022-10-29T08:51:22.868Z,54.04
2022-10-29T08:53:58.837Z,50.61
2022-10-29T08:56:36.560Z,48.77
2022-10-29T08:59:03.317Z,48.23
2022-10-29T09:01:30.186Z,47.82
2022-10-29T09:03:56.975Z,47.54
2022-10-29T09:06:23.731Z,47.60
2022-10-29T09:08:50.474Z,47.01
2022-10-29T09:11:17.211Z,46.82
2022-10-29T09:13:43.970Z,49.89
2022-10-29T09:16:10.729Z,52.32
2022-10-29T09:18:37.540Z,54.06
2022-10-29T09:21:04.350Z,50.36
2022-10-29T09:23:31.145Z,48.76
2022-10-29T09:25:57.914Z,48.88
2022-10-29T09:28:24.707Z,48.37
2022-10-29T09:30:51.460Z,47.66
2022-10-29T09:33:18.203Z,47.43
2022-10-29T09:35:44.963Z,47.34
2022-10-29T09:38:11.702Z,50.04
2022-10-29T09:40:38.436Z,53.07
2022-10-29T09:43:05.191Z,54.73
2022-10-29T09:45:31.976Z,51.09
2022-10-29T09:47:59.103Z,49.52
2022-10-29T09:50:26.043Z,48.62
2022-10-29T09:52:52.794Z,48.09
2022-10-29T09:55:19.600Z,47.93
2022-10-29T09:57:46.969Z,47.04
2022-10-29T10:00:13.737Z,47.41
2022-10-29T10:02:40.626Z,47.55
2022-10-29T10:05:07.628Z,47.25
2022-10-29T10:07:34.373Z,51.56
2022-10-29T10:10:01.111Z,53.37
2022-10-29T10:12:27.930Z,52.64
2022-10-29T10:14:54.679Z,50.00
2022-10-29T10:17:21.427Z,48.81
2022-10-29T10:19:48.785Z,48.01
2022-10-29T10:22:16.412Z,47.92
2022-10-29T10:24:43.607Z,47.69
2022-10-29T10:27:10.407Z,47.40
2022-10-29T10:29:37.393Z,47.14
2022-10-29T10:32:04.138Z,48.38
2022-10-29T10:34:30.928Z,52.44
2022-10-29T10:36:57.675Z,53.94
2022-10-29T10:39:24.530Z,51.15
2022-10-29T10:41:51.613Z,49.40
2022-10-29T10:44:18.357Z,48.77
2022-10-29T10:46:45.121Z,48.02
2022-10-29T10:49:11.883Z,47.59
2022-10-29T10:51:38.634Z,47.51
2022-10-29T10:54:05.445Z,47.44
2022-10-29T10:56:32.243Z,47.83
2022-10-29T10:58:59.007Z,51.83
2022-10-29T11:01:25.886Z,53.48
2022-10-29T11:03:52.719Z,51.73
2022-10-29T11:06:19.462Z,49.47
2022-10-29T11:08:46.203Z,48.34
2022-10-29T11:11:13.034Z,47.70
2022-10-29T11:13:39.808Z,47.63
2022-10-29T11:16:06.583Z,47.44
2022-10-29T11:18:33.359Z,47.06
2022-10-29T11:21:00.176Z,47.43
2022-10-29T11:23:26.956Z,48.80
2022-10-29T11:25:53.714Z,52.06
2022-10-29T11:28:20.595Z,54.60
2022-10-29T11:30:47.398Z,51.19
2022-10-29T11:35:46.155Z,48.59
2022-10-29T11:38:12.922Z,48.21
2022-10-29T11:40:39.677Z,47.88
2022-10-29T11:43:09.144Z,47.69
2022-10-29T11:45:36.132Z,47.50
2022-10-29T11:48:03.329Z,49.56
2022-10-29T11:50:30.119Z,52.71
2022-10-29T11:52:57.193Z,54.34
2022-10-29T11:55:24.220Z,50.46
2022-10-29T11:57:50.968Z,48.77
2022-10-29T12:00:18.142Z,48.57
2022-10-29T12:02:44.920Z,48.06
2022-10-29T12:05:11.659Z,47.46
2022-10-29T12:07:38.403Z,47.23
2022-10-29T12:10:05.177Z,47.42
2022-10-29T12:12:31.970Z,51.33
2022-10-29T12:14:58.715Z,53.80
2022-10-29T12:17:25.521Z,53.10
2022-10-29T12:19:52.345Z,49.67
2022-10-29T12:22:19.138Z,48.20
2022-10-29T12:24:45.999Z,47.88
2022-10-29T12:27:14.301Z,47.93
2022-10-29T12:29:44.107Z,47.82
2022-10-29T12:32:10.943Z,47.21
2022-10-29T12:34:37.707Z,49.70
2022-10-29T12:37:04.569Z,52.94
2022-10-29T12:39:31.465Z,54.42
2022-10-29T12:41:58.314Z,50.20
2022-10-29T12:44:25.260Z,49.07
2022-10-29T12:46:52.036Z,48.58
2022-10-29T12:49:18.801Z,48.38
2022-10-29T12:51:45.638Z,47.32
2022-10-29T12:54:12.473Z,47.70
2022-10-29T12:56:39.219Z,47.33
2022-10-29T12:59:06.009Z,49.27
2022-10-29T13:02:05.685Z,52.78
2022-10-29T13:04:19.600Z,54.29
2022-10-29T13:06:46.499Z,50.53
2022-10-29T13:09:13.240Z,48.22
2022-10-29T13:11:39.992Z,48.43
2022-10-29T13:14:06.760Z,48.38
2022-10-29T13:16:33.542Z,47.65
2022-10-29T13:19:00.283Z,47.88
2022-10-29T13:21:27.194Z,47.55
2022-10-29T13:23:53.935Z,50.91
2022-10-29T13:26:20.675Z,53.40
2022-10-29T13:28:47.487Z,53.29
2022-10-29T13:31:14.246Z,50.20
2022-10-29T13:33:41.018Z,48.74
2022-10-29T13:36:07.787Z,48.64
2022-10-29T13:38:34.530Z,48.11
2022-10-29T13:41:01.391Z,47.84
2022-10-29T13:43:28.211Z,47.87
2022-10-29T13:45:54.951Z,48.69
2022-10-29T13:48:21.724Z,52.95
2022-10-29T13:50:48.480Z,54.21
2022-10-29T13:53:15.221Z,52.04
2022-10-29T13:55:44.261Z,49.18
2022-10-29T13:58:11.019Z,48.54
2022-10-29T14:00:37.782Z,47.86
2022-10-29T14:03:04.535Z,47.96
2022-10-29T14:05:31.352Z,47.91
2022-10-29T14:07:58.509Z,47.15
2022-10-29T14:10:25.604Z,47.46
2022-10-29T14:12:52.479Z,51.66
2022-10-29T14:15:19.333Z,53.44
2022-10-29T14:17:46.146Z,52.65
2022-10-29T14:20:12.916Z,49.80
2022-10-29T14:22:40.606Z,48.22
2022-10-29T14:25:07.373Z,48.38
2022-10-29T14:27:34.139Z,48.08
2022-10-29T14:30:00.875Z,48.14
2022-10-29T14:32:27.623Z,47.68
2022-10-29T14:34:54.759Z,48.80
2022-10-29T14:37:21.507Z,52.07
2022-10-29T14:39:57.519Z,54.18
2022-10-29T14:42:25.455Z,51.83
2022-10-29T14:44:52.232Z,49.90
2022-10-29T14:47:19.174Z,48.50
2022-10-29T14:49:46.002Z,48.31
2022-10-29T14:52:12.739Z,47.88
2022-10-29T14:54:39.590Z,48.12
2022-10-29T14:57:06.350Z,47.97
2022-10-29T14:59:33.103Z,47.65
2022-10-29T15:02:05.708Z,47.89
2022-10-29T15:04:44.350Z,51.88
2022-10-29T15:07:11.090Z,53.35
2022-10-29T15:09:37.835Z,53.05
2022-10-29T15:12:04.603Z,49.92
2022-10-29T15:14:32.065Z,49.29
2022-10-29T15:16:58.830Z,48.71
2022-10-29T15:19:25.578Z,48.32
2022-10-29T15:21:52.402Z,48.26
2022-10-29T15:24:20.694Z,47.93
2022-10-29T15:26:47.802Z,47.54
2022-10-29T15:29:14.572Z,47.82
2022-10-29T15:31:41.333Z,51.64
2022-10-29T15:34:08.354Z,53.53
2022-10-29T15:36:35.116Z,53.21
2022-10-29T15:39:01.881Z,50.10
2022-10-29T15:41:28.647Z,48.48
2022-10-29T15:43:55.403Z,48.58
2022-10-29T15:46:22.166Z,48.41
2022-10-29T15:48:50.035Z,48.20
2022-10-29T15:51:16.776Z,48.15
2022-10-29T15:53:43.523Z,48.19
2022-10-29T15:56:10.284Z,50.07
2022-10-29T15:58:37.023Z,53.16
2022-10-29T16:01:03.860Z,54.16
2022-10-29T16:03:34.100Z,50.58
2022-10-29T16:06:03.792Z,49.50
2022-10-29T16:08:30.544Z,48.86
2022-10-29T16:10:57.387Z,48.15
2022-10-29T16:13:24.213Z,47.82
2022-10-29T16:15:50.955Z,47.77
2022-10-29T16:18:17.707Z,47.69
2022-10-29T16:20:44.766Z,48.66
2022-10-29T16:23:11.578Z,52.84
2022-10-29T16:25:38.391Z,54.51
2022-10-29T16:28:05.135Z,51.85
2022-10-29T16:30:31.943Z,49.40
2022-10-29T16:32:59.198Z,49.14
2022-10-29T16:35:26.226Z,48.13
2022-10-29T16:37:52.964Z,48.09
2022-10-29T16:40:19.767Z,47.97
2022-10-29T16:42:46.619Z,47.85
2022-10-29T16:45:13.379Z,47.60
2022-10-29T16:47:40.143Z,49.95
2022-10-29T16:50:06.895Z,53.67
2022-10-29T16:52:33.645Z,54.86
2022-10-29T16:55:00.521Z,50.47
2022-10-29T16:57:29.263Z,48.94
2022-10-29T16:59:56.066Z,48.51
2022-10-29T17:02:22.870Z,48.19
2022-10-29T17:04:49.632Z,47.66
2022-10-29T17:07:16.368Z,47.79
2022-10-29T17:09:43.129Z,47.42
2022-10-29T17:12:09.936Z,47.20
2022-10-29T17:14:36.700Z,49.78
2022-10-29T17:17:03.501Z,52.97
2022-10-29T17:19:30.317Z,54.80
2022-10-29T17:21:58.652Z,50.68
2022-10-29T17:24:26.108Z,49.53
2022-10-29T17:26:52.846Z,48.79
2022-10-29T17:29:19.591Z,48.37
2022-10-29T17:31:46.338Z,47.98
2022-10-29T17:34:13.096Z,47.36
2022-10-29T17:36:43.109Z,47.35
2022-10-29T17:39:10.139Z,47.50
2022-10-29T17:41:36.946Z,49.66
2022-10-29T17:44:03.684Z,53.61
2022-10-29T17:46:30.454Z,54.51
2022-10-29T17:48:57.198Z,50.02
2022-10-29T17:51:23.985Z,49.07
2022-10-29T17:53:50.779Z,48.51
2022-10-29T17:56:17.531Z,48.53
2022-10-29T17:58:44.471Z,48.20
2022-10-29T18:01:11.666Z,48.17
2022-10-29T18:03:38.471Z,47.66
2022-10-29T18:06:05.214Z,47.38
2022-10-29T18:08:31.985Z,50.19
2022-10-29T18:10:58.752Z,52.90
2022-10-29T18:13:25.496Z,54.59
2022-10-29T18:15:52.287Z,50.94
2022-10-29T18:18:19.035Z,49.53
2022-10-29T18:20:45.787Z,48.94
2022-10-29T18:23:12.539Z,48.71
2022-10-29T18:25:39.271Z,47.88
2022-10-29T18:28:06.326Z,47.67
2022-10-29T18:30:33.095Z,48.04
2022-10-29T18:33:00.253Z,47.66
2022-10-29T18:35:27.614Z,48.97
2022-10-29T18:37:54.797Z,52.44
2022-10-29T18:40:21.820Z,54.82
2022-10-29T18:42:48.562Z,51.52
2022-10-29T18:45:15.340Z,49.71
2022-10-29T18:47:42.085Z,48.92
2022-10-29T18:50:08.888Z,48.65
2022-10-29T18:52:35.656Z,48.41
2022-10-29T18:55:02.577Z,48.30
2022-10-29T18:57:29.414Z,48.25
2022-10-29T18:59:56.182Z,47.85
2022-10-29T19:02:23.002Z,48.67
2022-10-29T19:04:49.810Z,53.01
2022-10-29T19:07:16.575Z,54.46
2022-10-29T19:09:43.317Z,51.82
2022-10-29T19:12:12.697Z,49.53
2022-10-29T19:14:39.468Z,49.00
2022-10-29T19:17:06.220Z,48.50
2022-10-29T19:19:32.970Z,47.95
2022-10-29T19:21:59.727Z,48.11
2022-10-29T19:24:26.472Z,48.04
2022-10-29T19:26:53.217Z,47.93
2022-10-29T19:29:19.991Z,47.53
2022-10-29T19:31:47.436Z,51.99
2022-10-29T19:34:14.274Z,53.87
2022-10-29T19:36:41.074Z,52.45
2022-10-29T19:39:07.830Z,50.32
2022-10-29T19:41:35.257Z,48.63
2022-10-29T19:44:02.096Z,48.79
2022-10-29T19:46:28.878Z,48.25
2022-10-29T19:48:55.949Z,48.25
2022-10-29T19:51:22.740Z,47.92
2022-10-29T19:53:51.230Z,47.85
2022-10-29T19:56:18.023Z,47.25
2022-10-29T19:58:45.512Z,49.70
2022-10-29T20:01:12.535Z,53.08
2022-10-29T20:03:39.459Z,54.69
2022-10-29T20:06:09.178Z,50.98
2022-10-29T20:08:35.984Z,49.03
2022-10-29T20:11:02.722Z,49.07
2022-10-29T20:13:29.609Z,48.24
2022-10-29T20:15:56.455Z,48.13
2022-10-29T20:18:23.249Z,48.06
2022-10-29T20:20:50.047Z,47.95
2022-10-29T20:23:16.816Z,47.59
2022-10-29T20:25:43.572Z,50.93
2022-10-29T20:28:11.539Z,53.70
2022-10-29T20:30:38.301Z,54.01
2022-10-29T20:33:05.079Z,50.55
2022-10-29T20:35:31.964Z,49.20
2022-10-29T20:37:59.055Z,49.20
2022-10-29T20:40:26.052Z,48.33
2022-10-29T20:42:52.832Z,47.62
2022-10-29T20:45:19.783Z,47.85
2022-10-29T20:47:46.536Z,47.61
2022-10-29T20:50:13.312Z,47.48
2022-10-29T20:52:44.438Z,50.85
2022-10-29T20:55:15.024Z,54.26
2022-10-29T20:57:41.761Z,53.54
2022-10-29T21:00:08.516Z,50.04
2022-10-29T21:02:35.319Z,49.31
2022-10-29T21:05:02.219Z,48.42
2022-10-29T21:07:28.972Z,48.26
2022-10-29T21:09:55.795Z,48.09
2022-10-29T21:12:22.600Z,47.70
2022-10-29T21:14:49.423Z,47.95
2022-10-29T21:17:16.187Z,47.96
2022-10-29T21:19:42.937Z,50.69
2022-10-29T21:22:09.687Z,53.13
2022-10-29T21:24:37.569Z,53.29
2022-10-29T21:27:06.576Z,50.81
2022-10-29T21:29:33.324Z,49.45
2022-10-29T21:32:00.194Z,49.16
2022-10-29T21:34:27.012Z,48.64
2022-10-29T21:36:54.735Z,47.83
2022-10-29T21:39:21.513Z,48.25
2022-10-29T21:41:48.284Z,47.88
2022-10-29T21:44:15.027Z,47.88
2022-10-29T21:46:41.806Z,50.12
2022-10-29T21:49:08.559Z,52.27
2022-10-29T21:51:35.336Z,54.92
2022-10-29T21:54:02.105Z,52.23
2022-10-29T21:56:28.873Z,50.43
2022-10-29T21:58:55.631Z,49.43
2022-10-29T22:01:22.594Z,49.05
2022-10-29T22:03:49.527Z,48.15
2022-10-29T22:06:16.335Z,47.99
2022-10-29T22:08:43.137Z,47.62
2022-10-29T22:11:09.918Z,48.00
2022-10-29T22:13:36.726Z,47.66
2022-10-29T22:16:03.475Z,47.64
2022-10-29T22:18:30.231Z,49.75
2022-10-29T22:20:56.976Z,49.00
2022-10-29T22:23:23.739Z,52.60
2022-10-29T22:25:51.014Z,53.87
2022-10-29T22:28:17.809Z,51.66
2022-10-29T22:30:44.571Z,49.88
2022-10-29T22:33:11.415Z,49.85
2022-10-29T22:35:38.151Z,49.01
2022-10-29T22:38:04.953Z,48.50
2022-10-29T22:40:31.701Z,48.58
2022-10-29T22:42:58.893Z,48.11
2022-10-29T22:45:25.931Z,48.09
2022-10-29T22:47:52.744Z,47.28
2022-10-29T22:50:19.497Z,47.76
2022-10-29T22:52:46.252Z,49.16
2022-10-29T22:55:12.998Z,51.66
2022-10-29T22:57:39.763Z,54.17
2022-10-29T23:00:06.519Z,53.05
2022-10-29T23:02:33.322Z,50.98
2022-10-29T23:05:00.104Z,49.27
2022-10-29T23:07:26.920Z,48.97
2022-10-29T23:09:53.747Z,48.59
2022-10-29T23:12:20.542Z,48.12
2022-10-29T23:14:47.306Z,48.05
2022-10-29T23:17:19.871Z,47.89
2022-10-29T23:19:46.629Z,48.06
2022-10-29T23:22:16.369Z,47.43
2022-10-29T23:24:43.132Z,49.76
2022-10-29T23:27:09.870Z,51.37
2022-10-29T23:29:36.638Z,54.45
2022-10-29T23:32:03.390Z,52.85
2022-10-29T23:34:30.136Z,50.10
2022-10-29T23:36:57.632Z,49.96
2022-10-29T23:39:24.383Z,48.85
2022-10-29T23:41:51.124Z,48.71
2022-10-29T23:44:17.878Z,48.70
2022-10-29T23:46:44.627Z,48.64
2022-10-29T23:49:11.371Z,47.95
2022-10-29T23:51:38.164Z,47.90
2022-10-29T23:54:04.905Z,48.47
2022-10-29T23:56:31.687Z,48.85
2022-10-29T23:58:58.449Z,50.01
